Time,TemperatureF,DewpointF,PressureIn,WindDirection,WindDirectionDegrees,WindSpeedMPH,WindSpeedGustMPH,Humidity,HourlyPrecipIn,Conditions,Clouds,dailyrainin,SoftwareType,DateUTC
2013-08-22 00:07:00,59.0,51.0,29.93,West,273,0.0,1.0,75,0.00,,,0.00,weatherlink.com 1.10,2013-08-22 07:07:00,
2013-08-22 00:22:00,58.5,52.0,29.93,West,264,0.0,0.0,79,0.00,,,0.00,weatherlink.com 1.10,2013-08-22 07:22:00,
2013-08-22 00:37:00,57.5,51.0,29.93,WSW,250,1.0,2.0,80,0.00,,,0.00,weatherlink.com 1.10,2013-08-22 07:37:00,
2013-08-22 00:52:00,57.4,51.0,29.93,West,271,1.0,2.0,80,0.00,,,0.00,weatherlink.com 1.10,2013-08-22 07:52:00,
2013-08-22 01:07:00,57.4,51.0,29.93,West,273,0.0,1.0,80,0.00,,,0.00,weatherlink.com 1.10,2013-08-22 08:07:00,
2013-08-22 01:22:00,57.1,51.0,29.92,West,259,0.0,1.0,81,0.00,,,0.00,weatherlink.com 1.10,2013-08-22 08:22:00,
2013-08-22 01:37:00,56.3,51.0,29.92,West,270,1.0,1.0,83,0.00,,,0.00,weatherlink.com 1.10,2013-08-22 08:37:00,
2013-08-22 01:52:00,56.1,51.0,29.92,West,276,1.0,2.0,83,0.00,,,0.00,weatherlink.com 1.10,2013-08-22 08:52:00,
2013-08-22 02:07:00,55.8,51.0,29.91,WSW,257,0.0,1.0,84,0.00,,,0.00,weatherlink.com 1.10,2013-08-22 09:07:00,
2013-08-22 02:22:00,55.2,51.0,29.91,West,264,1.0,2.0,84,0.00,,,0.00,weatherlink.com 1.10,2013-08-22 09:22:00,
2013-08-22 02:37:00,54.8,50.0,29.91,West,262,1.0,1.0,85,0.00,,,0.00,weatherlink.com 1.10,2013-08-22 09:37:00,
2013-08-22 02:52:00,54.6,50.0,29.91,West,273,1.0,2.0,85,0.00,,,0.00,weatherlink.com 1.10,2013-08-22 09:52:00,
2013-08-22 03:07:00,54.3,50.0,29.91,West,271,1.0,1.0,86,0.00,,,0.00,weatherlink.com 1.10,2013-08-22 10:07:00,
2013-08-22 03:22:00,54.4,50.0,29.91,WSW,252,1.0,2.0,85,0.00,,,0.00,weatherlink.com 1.10,2013-08-22 10:22:00,
2013-08-22 03:37:00,54.1,50.0,29.91,West,264,0.0,1.0,86,0.00,,,0.00,weatherlink.com 1.10,2013-08-22 10:37:00,
2013-08-22 05:38:00,51.9,49.0,29.90,WSW,253,0.0,2.0,91,0.00,,,0.00,weatherlink.com 1.10,2013-08-22 12:38:00,
2013-08-22 05:53:00,51.6,49.0,29.90,West,274,1.0,1.0,91,0.00,,,0.00,weatherlink.com 1.10,2013-08-22 12:53:00,
2013-08-22 06:23:00,51.2,49.0,29.90,West,262,1.0,2.0,92,0.00,,,0.00,weatherlink.com 1.10,2013-08-22 13:23:00,
2013-08-22 06:38:00,50.9,49.0,29.91,West,274,1.0,3.0,92,0.00,,,0.00,weatherlink.com 1.10,2013-08-22 13:38:00,
2013-08-22 06:53:00,51.3,49.0,29.90,West,267,1.0,2.0,92,0.00,,,0.00,weatherlink.com 1.10,2013-08-22 13:53:00,
2013-08-22 07:08:00,52.2,50.0,29.91,West,262,0.0,1.0,92,0.00,,,0.00,weatherlink.com 1.10,2013-08-22 14:08:00,
2013-08-22 07:23:00,55.1,51.0,29.91,SSE,166,0.0,2.0,87,0.00,,,0.00,weatherlink.com 1.10,2013-08-22 14:23:00,
2013-08-22 07:38:00,56.8,52.0,29.91,NE,34,0.0,2.0,85,0.00,,,0.00,weatherlink.com 1.10,2013-08-22 14:38:00,
2013-08-22 07:53:00,57.3,53.0,29.91,NNE,15,1.0,2.0,84,0.00,,,0.00,weatherlink.com 1.10,2013-08-22 14:53:00,
2013-08-22 08:08:00,57.8,53.0,29.90,NE,34,2.0,3.0,83,0.00,,,0.00,weatherlink.com 1.10,2013-08-22 15:08:00,
2013-08-22 08:23:00,59.1,53.0,29.90,NE,34,3.0,4.0,81,0.00,,,0.00,weatherlink.com 1.10,2013-08-22 15:23:00,
2013-08-22 08:38:00,61.1,54.0,29.90,SSE,148,2.0,3.0,76,0.00,,,0.00,weatherlink.com 1.10,2013-08-22 15:38:00,
2013-08-22 08:53:00,62.4,53.0,29.90,SE,135,2.0,2.0,71,0.00,,,0.00,weatherlink.com 1.10,2013-08-22 15:53:00,
2013-08-22 09:08:00,63.8,53.0,29.90,ESE,106,0.0,3.0,69,0.00,,,0.00,weatherlink.com 1.10,2013-08-22 16:08:00,
2013-08-22 09:23:00,66.1,54.0,29.90,East,94,1.0,1.0,65,0.00,,,0.00,weatherlink.com 1.10,2013-08-22 16:23:00,
2013-08-22 09:38:00,67.1,53.0,29.90,SSE,150,0.0,2.0,61,0.00,,,0.00,weatherlink.com 1.10,2013-08-22 16:38:00,
2013-08-22 09:53:00,67.9,53.0,29.89,NE,38,2.0,5.0,60,0.00,,,0.00,weatherlink.com 1.10,2013-08-22 16:53:00,
2013-08-22 10:08:00,68.1,54.0,29.88,NE,37,2.0,5.0,60,0.00,,,0.00,weatherlink.com 1.10,2013-08-22 17:08:00,
2013-08-22 10:23:00,69.8,54.0,29.88,ENE,65,0.0,3.0,57,0.00,,,0.00,weatherlink.com 1.10,2013-08-22 17:23:00,
2013-08-22 10:38:00,71.4,54.0,29.89,ENE,71,0.0,1.0,54,0.00,,,0.00,weatherlink.com 1.10,2013-08-22 17:38:00,
2013-08-22 10:53:00,71.3,55.0,29.88,East,83,2.0,2.0,56,0.00,,,0.00,weatherlink.com 1.10,2013-08-22 17:53:00,
2013-08-22 11:08:00,71.2,55.0,29.88,ENE,60,2.0,3.0,56,0.00,,,0.00,weatherlink.com 1.10,2013-08-22 18:08:00,
2013-08-22 11:23:00,72.8,55.0,29.88,SSE,162,0.0,2.0,54,0.00,,,0.00,weatherlink.com 1.10,2013-08-22 18:23:00,
2013-08-22 11:38:00,72.6,54.0,29.87,NNE,19,2.0,2.0,53,0.00,,,0.00,weatherlink.com 1.10,2013-08-22 18:38:00,
2013-08-22 11:54:00,72.7,55.0,29.87,NNE,20,0.0,1.0,54,0.00,,,0.00,weatherlink.com 1.10,2013-08-22 18:54:00,
2013-08-22 12:09:00,72.1,55.0,29.86,NNE,22,0.0,2.0,55,0.00,,,0.00,weatherlink.com 1.10,2013-08-22 19:09:00,
2013-08-22 12:24:00,72.7,55.0,29.86,NE,34,0.0,1.0,54,0.00,,,0.00,weatherlink.com 1.10,2013-08-22 19:24:00,
2013-08-22 12:39:00,72.7,55.0,29.85,NE,46,0.0,3.0,55,0.00,,,0.00,weatherlink.com 1.10,2013-08-22 19:39:00,
2013-08-22 12:54:00,73.3,56.0,29.85,NE,45,1.0,2.0,54,0.00,,,0.00,weatherlink.com 1.10,2013-08-22 19:54:00,
2013-08-22 13:09:00,73.9,56.0,29.85,NNE,30,3.0,6.0,53,0.00,,,0.00,weatherlink.com 1.10,2013-08-22 20:09:00,
2013-08-22 13:24:00,74.6,56.0,29.85,North,4,3.0,6.0,53,0.00,,,0.00,weatherlink.com 1.10,2013-08-22 20:24:00,
2013-08-22 13:39:00,75.6,57.0,29.84,NNW,348,3.0,4.0,53,0.00,,,0.00,weatherlink.com 1.10,2013-08-22 20:39:00,
2013-08-22 13:54:00,75.8,57.0,29.84,NE,45,3.0,6.0,52,0.00,,,0.00,weatherlink.com 1.10,2013-08-22 20:54:00,
2013-08-22 14:09:00,76.3,56.0,29.84,NNE,33,1.0,6.0,50,0.00,,,0.00,weatherlink.com 1.10,2013-08-22 21:09:00,
2013-08-22 14:24:00,77.0,57.0,29.84,NNE,13,3.0,5.0,50,0.00,,,0.00,weatherlink.com 1.10,2013-08-22 21:24:00,
2013-08-22 14:39:00,78.1,56.0,29.83,NE,43,1.0,7.0,47,0.00,,,0.00,weatherlink.com 1.10,2013-08-22 21:39:00,
2013-08-22 14:54:00,78.6,57.0,29.83,NNE,30,4.0,7.0,47,0.00,,,0.00,weatherlink.com 1.10,2013-08-22 21:54:00,
2013-08-22 15:09:00,79.0,56.0,29.82,WNW,302,1.0,6.0,46,0.00,,,0.00,weatherlink.com 1.10,2013-08-22 22:09:00,
2013-08-22 15:24:00,79.3,55.0,29.81,North,351,1.0,5.0,44,0.00,,,0.00,weatherlink.com 1.10,2013-08-22 22:24:00,
2013-08-22 15:39:00,79.4,55.0,29.81,North,349,3.0,7.0,43,0.00,,,0.00,weatherlink.com 1.10,2013-08-22 22:39:00,
2013-08-22 15:54:00,79.4,55.0,29.80,North,5,3.0,5.0,43,0.00,,,0.00,weatherlink.com 1.10,2013-08-22 22:54:00,
2013-08-22 16:09:00,79.5,54.0,29.80,NNE,12,4.0,5.0,42,0.00,,,0.00,weatherlink.com 1.10,2013-08-22 23:09:00,
2013-08-22 16:24:00,79.5,55.0,29.79,NNE,23,3.0,4.0,43,0.00,,,0.00,weatherlink.com 1.10,2013-08-22 23:24:00,
2013-08-22 16:39:00,79.2,55.0,29.79,NNE,32,2.0,4.0,44,0.00,,,0.00,weatherlink.com 1.10,2013-08-22 23:39:00,
2013-08-22 16:54:00,78.8,54.0,29.79,North,4,4.0,6.0,42,0.00,,,0.00,weatherlink.com 1.10,2013-08-22 23:54:00,
2013-08-22 17:09:00,78.5,53.0,29.78,North,354,2.0,8.0,41,0.00,,,0.00,weatherlink.com 1.10,2013-08-23 00:09:00,
2013-08-22 17:24:00,78.5,53.0,29.78,North,358,4.0,5.0,41,0.00,,,0.00,weatherlink.com 1.10,2013-08-23 00:24:00,
2013-08-22 17:39:00,78.5,53.0,29.78,NNE,13,1.0,3.0,41,0.00,,,0.00,weatherlink.com 1.10,2013-08-23 00:39:00,
2013-08-22 17:54:00,78.0,54.0,29.78,North,8,1.0,2.0,43,0.00,,,0.00,weatherlink.com 1.10,2013-08-23 00:54:00,
2013-08-22 18:09:00,78.1,54.0,29.78,NW,310,0.0,2.0,43,0.00,,,0.00,weatherlink.com 1.10,2013-08-23 01:09:00,
2013-08-22 18:24:00,76.1,55.0,29.78,SSE,151,0.0,2.0,48,0.00,,,0.00,weatherlink.com 1.10,2013-08-23 01:24:00,
2013-08-22 18:39:00,75.0,58.0,29.77,SSE,150,0.0,0.0,55,0.00,,,0.00,weatherlink.com 1.10,2013-08-23 01:39:00,
2013-08-22 18:54:00,74.0,59.0,29.78,SSE,150,0.0,0.0,60,0.00,,,0.00,weatherlink.com 1.10,2013-08-23 01:54:00,
2013-08-22 19:09:00,71.3,58.0,29.78,SSE,150,0.0,1.0,64,0.00,,,0.00,weatherlink.com 1.10,2013-08-23 02:09:00,
2013-08-22 19:24:00,69.3,59.0,29.79,WSW,238,1.0,1.0,69,0.00,,,0.00,weatherlink.com 1.10,2013-08-23 02:24:00,
2013-08-22 19:39:00,70.0,58.0,29.79,WSW,238,0.0,0.0,67,0.00,,,0.00,weatherlink.com 1.10,2013-08-23 02:39:00,
2013-08-22 19:54:00,68.0,59.0,29.79,NW,320,1.0,3.0,73,0.00,,,0.00,weatherlink.com 1.10,2013-08-23 02:54:00,
2013-08-22 20:09:00,67.5,59.0,29.79,WSW,242,0.0,2.0,75,0.00,,,0.00,weatherlink.com 1.10,2013-08-23 03:09:00,
2013-08-22 20:24:00,66.6,58.0,29.79,WSW,237,1.0,1.0,74,0.00,,,0.00,weatherlink.com 1.10,2013-08-23 03:24:00,
2013-08-22 20:39:00,66.4,58.0,29.79,WSW,238,0.0,0.0,75,0.00,,,0.00,weatherlink.com 1.10,2013-08-23 03:39:00,
2013-08-22 20:54:00,64.8,59.0,29.79,SW,235,1.0,1.0,81,0.00,,,0.00,weatherlink.com 1.10,2013-08-23 03:54:00,
2013-08-22 21:09:00,64.4,58.0,29.80,SW,236,0.0,1.0,81,0.00,,,0.00,weatherlink.com 1.10,2013-08-23 04:09:00,
2013-08-22 21:24:00,65.0,57.0,29.80,SW,236,0.0,1.0,76,0.00,,,0.00,weatherlink.com 1.10,2013-08-23 04:24:00,
2013-08-22 21:39:00,65.0,57.0,29.81,WSW,248,0.0,1.0,76,0.00,,,0.00,weatherlink.com 1.10,2013-08-23 04:39:00,
2013-08-22 21:54:00,64.2,58.0,29.81,WSW,249,0.0,0.0,79,0.00,,,0.00,weatherlink.com 1.10,2013-08-23 04:54:00,
2013-08-22 22:09:00,64.2,57.0,29.80,SW,226,1.0,2.0,78,0.00,,,0.00,weatherlink.com 1.10,2013-08-23 05:09:00,
2013-08-22 22:24:00,63.7,58.0,29.80,SW,228,0.0,0.0,82,0.00,,,0.00,weatherlink.com 1.10,2013-08-23 05:24:00,
2013-08-22 22:39:00,63.1,57.0,29.79,West,259,1.0,2.0,81,0.00,,,0.00,weatherlink.com 1.10,2013-08-23 05:39:00,
2013-08-22 22:54:00,63.1,57.0,29.79,West,259,0.0,1.0,80,0.00,,,0.00,weatherlink.com 1.10,2013-08-23 05:54:00,
2013-08-22 23:09:00,63.1,57.0,29.80,West,259,0.0,0.0,80,0.00,,,0.00,weatherlink.com 1.10,2013-08-23 06:09:00,
2013-08-22 23:25:00,62.5,57.0,29.80,ESE,111,0.0,1.0,82,0.00,,,0.00,weatherlink.com 1.10,2013-08-23 06:25:00,
2013-08-22 23:40:00,62.5,57.0,29.80,ESE,111,0.0,0.0,81,0.00,,,0.00,weatherlink.com 1.10,2013-08-23 06:40:00,
2013-08-22 23:55:00,62.1,58.0,29.80,ESE,111,0.0,0.0,86,0.00,,,0.00,weatherlink.com 1.10,2013-08-23 06:55:00,